Station: Gayndah  

  Atmospheric Gas Attenuation - ITU Rec 676-11   ----------------- dB/100km -----------------
Date Time Temp RH % AH g/m3 Dew Point Wind Direction Speed kph Gust kph Barometer mB Rainfall Since 9am 24GHz 47GHz 76GHz 122GHz 134GHz 241GHz
09/05 21:50 13.1 86 9.81 10.8 0 0 1023.7 0 22.2 28.5 45.7 120.0 116.8 402.5
09/05 21:40 13.2 82 9.42 10.3 0 0 1023.8 0 21.4 27.8 44.0 115.4 111.2 383.1
09/05 21:30 13.9 83 9.95 11.1 0 0 1023.7 0 22.5 28.5 45.8 120.3 117.5 405.2
09/05 21:20 14 83 10.01 11.1 0 0 1023.7 0 22.6 28.6 46.0 120.8 118.2 407.6
09/05 21:10 14.3 80 9.83 10.9 0 0 1023.5 0 22.2 28.2 45.1 118.3 115.2 397.3
09/05 21:00 14.4 78 9.64 10.6 0 2 1023.4 0 21.8 27.8 44.2 116.1 112.4 387.6
09/05 20:50 14.5 78 9.7 10.7 2 2 1023.3 0 21.9 27.9 44.4 116.6 113.1 390.0
09/05 20:40 15.1 75 9.68 10.7 4 4 1023.2 0 21.8 27.7 44.0 115.4 112.0 386.0
09/05 20:30 15.2 74 9.6 10.6 4 4 1023.1 0 21.6 27.5 43.6 114.4 110.7 381.7
09/05 20:20 15.4 72 9.46 10.5 4 4 1023.1 0 21.3 27.2 42.9 112.6 108.6 374.1
09/05 20:10 16.1 71 9.73 10.8 4 4 1023.1 0 21.9 27.4 43.6 114.5 111.2 383.4
09/05 20:00 15.9 71 9.61 10.7 4 6 1023 0 21.6 27.3 43.2 113.5 109.8 378.7
09/05 19:50 16.2 70 9.65 10.7 4 4 1023 0 21.7 27.3 43.2 113.5 110.0 379.1
09/05 19:40 16.4 67 9.35 10.4 4 6 1022.9 0 21.0 26.7 41.9 110.0 105.7 364.2
09/05 19:30 16.6 67 9.46 10.5 6 6 1022.8 0 21.3 26.8 42.2 110.9 106.9 368.4
09/05 19:20 16.6 66 9.32 10.2 4 4 1022.6 0 21.0 26.6 41.7 109.3 105.0 361.9
09/05 19:10 17.1 64 9.32 10.4 6 6 1022.6 0 20.9 26.4 41.4 108.6 104.3 359.6
09/05 19:00 17.3 66 9.72 10.9 6 6 1022.3 0 21.8 27.0 42.9 112.6 109.3 376.9
09/05 18:50 16.6 65 9.18 10 6 6 1022.2 0 20.7 26.3 41.1 107.8 103.1 355.3
09/05 18:40 18.1 58 8.96 9.9 4 4 1021.9 0 20.1 25.6 39.5 103.5 98.3 338.8
09/05 18:30 18.3 60 9.38 10.4 7 7 1021.7 0 21.0 26.1 41.0 107.6 103.4 356.6
09/05 18:20 18.4 57 8.96 9.7 6 7 1021.6 0 20.1 25.5 39.3 103.1 97.9 337.4
09/05 18:10 18.8 56 9.02 9.8 6 6 1021.4 0 20.2 25.4 39.3 103.1 98.2 338.3
09/05 18:00 19.3 54 8.96 9.8 7 9 1021.2 0 20.1 25.2 38.8 101.9 96.8 333.5
09/05 17:50 19.7 52 8.83 9.8 9 9 1021.1 0 19.8 24.9 38.2 100.1 94.7 326.2
09/05 17:40 20.2 50 8.74 9.4 9 9 1021 0 19.6 24.6 37.6 98.5 93.0 320.3
09/05 17:30 20.6 48 8.59 9.2 7 7 1020.9 0 19.2 24.3 36.8 96.6 90.7 312.3
09/05 17:20 21.8 44 8.44 9 6 7 1020.8 0 18.9 23.7 35.8 93.7 87.6 301.4
09/05 17:10 22.3 43 8.49 9.1 7 7 1020.6 0 18.9 23.7 35.7 93.6 87.6 301.6
09/05 17:00 23.1 42 8.68 9.5 6 9 1020.5 0 19.3 23.7 36.0 94.4 88.9 306.4
09/05 16:50 23.8 40 8.6 9.4 7 7 1020.3 0 19.1 23.4 35.4 92.9 87.2 300.4
09/05 16:40 24.3 38 8.41 9.4 7 9 1020.1 0 18.7 23.0 34.6 90.5 84.5 290.9
09/05 16:30 24.7 39 8.83 9.8 9 13 1020.1 0 19.5 23.5 35.8 94.0 88.9 306.4
09/05 16:20 24.6 39 8.78 9.7 13 13 1020 0 19.4 23.5 35.7 93.6 88.4 304.7
09/05 16:10 25.3 36 8.43 9.5 17 19 1019.8 0 18.7 22.8 34.2 89.6 83.6 288.1
09/05 16:00 25.3 37 8.66 9.6 9 17 1019.7 0 19.2 23.1 35.0 91.7 86.2 297.2
09/05 15:50 25.7 36 8.62 9.5 15 20 1019.7 0 19.1 23.0 34.7 90.9 85.4 294.2
09/05 15:40 25.7 36 8.62 9.5 6 7 1019.7 0 19.1 23.0 34.7 90.9 85.4 294.2
09/05 15:30 26.1 35 8.57 9.5 7 15 1019.6 0 18.9 22.8 34.3 90.0 84.4 290.8
09/05 15:20 26.2 35 8.62 9.5 15 19 1019.5 0 19.0 22.8 34.5 90.3 84.8 292.4
09/05 15:10 25.9 34 8.23 8.8 7 7 1019.5 0 18.2 22.4 33.3 87.1 80.8 278.1
09/05 15:00 26.3 35 8.66 9.6 7 13 1019.5 0 19.1 22.9 34.6 90.5 85.2 293.6
09/05 14:50 25.8 36 8.67 9.6 4 6 1019.6 0 19.2 23.0 34.8 91.2 85.8 295.8
09/05 14:40 26.1 35 8.57 9.4 11 17 1019.5 0 18.9 22.8 34.3 89.9 84.4 290.7
09/05 14:30 26.6 34 8.56 9.5 9 19 1019.5 0 18.9 22.6 34.1 89.3 83.7 288.6
09/05 14:20 26.2 35 8.62 9.5 7 9 1019.6 0 19.0 22.8 34.5 90.3 84.8 292.4
09/05 14:10 26.2 34 8.37 9.1 15 17 1019.5 0 18.5 22.5 33.6 88.0 82.0 282.5
09/05 14:00 25.9 35 8.47 9.3 9 19 1019.6 0 18.7 22.7 34.1 89.3 83.5 287.5
09/05 13:50 26.2 32 7.88 8.6 7 9 1019.6 0 17.5 21.8 32.0 83.6 76.6 263.6
09/05 13:40 26.6 34 8.56 9.8 17 22 1019.7 0 18.9 22.7 34.1 89.3 83.7 288.6
09/05 13:30 26.1 35 8.57 9.5 11 22 1019.8 0 18.9 22.8 34.3 90.0 84.4 290.8
09/05 13:20 25.7 36 8.62 9.5 7 9 1019.8 0 19.1 23.0 34.7 90.9 85.4 294.2
09/05 13:10 25.9 34 8.23 9.2 15 17 1019.8 0 18.2 22.4 33.3 87.1 80.8 278.2
09/05 13:00 25.6 36 8.57 9.4 7 17 1020 0 19.0 22.9 34.6 90.5 84.9 292.6
09/05 12:50 26 34 8.28 9.3 6 7 1020.2 0 18.3 22.4 33.4 87.5 81.3 279.9
09/05 12:40 25.6 33 7.86 8.5 6 6 1020.4 0 17.5 22.0 32.2 84.1 77.0 264.9
09/05 12:30 25.4 35 8.24 8.8 7 13 1020.6 0 18.3 22.5 33.5 87.8 81.5 280.4
09/05 12:20 24.9 36 8.24 8.8 6 9 1020.8 0 18.3 22.7 33.7 88.4 82.0 282.2
09/05 12:10 24.7 35 7.92 8.2 6 9 1020.9 0 17.7 22.3 32.7 85.7 78.6 270.3
09/05 12:00 24.2 36 7.92 8.2 7 15 1021.2 0 17.7 22.4 33.0 86.2 79.1 272.0
09/05 11:50 24 35 7.61 7.6 9 13 1021.4 0 17.0 22.0 32.0 83.6 75.8 260.5
09/05 11:40 24.1 35 7.66 7.7 9 11 1021.6 0 17.1 22.1 32.1 84.0 76.3 262.2
09/05 11:30 23.4 35 7.36 7.1 6 13 1021.6 0 16.5 21.8 31.4 82.0 73.6 252.6
09/05 11:20 23.1 37 7.65 7.6 6 7 1021.7 0 17.2 22.3 32.5 84.9 77.1 265.0
09/05 11:10 23.5 35 7.4 7.5 6 7 1021.9 0 16.6 21.9 31.5 82.3 74.0 253.9
09/05 11:00 22.9 35 7.15 6.6 6 11 1022.1 0 16.1 21.7 30.9 80.6 71.7 246.0
09/05 10:50 22.6 34 6.83 6.3 4 6 1022.3 0 15.5 21.3 29.9 78.0 68.4 234.4
09/05 10:40 22.4 35 6.95 6.2 6 6 1022.4 0 15.7 21.5 30.4 79.3 70.0 239.7
09/05 10:30 22.3 36 7.11 6.5 6 7 1022.5 0 16.1 21.8 31.0 80.9 71.8 246.3
09/05 10:20 21.5 36 6.79 5.8 2 4 1022.5 0 15.4 21.5 30.2 78.7 68.9 236.0
09/05 10:10 21 37 6.78 5.7 6 7 1022.6 0 15.4 21.6 30.3 79.1 69.3 237.1
09/05 10:00 20.8 38 6.88 6 6 9 1022.7 0 15.6 21.8 30.8 80.2 70.6 241.7
09/05 09:50 19.6 38 6.41 5.2 4 4 1022.7 0 14.7 21.4 29.6 77.1 66.3 226.4
09/05 09:40 19.4 40 6.67 5.4 2 2 1022.8 0 15.3 21.8 30.5 79.7 69.4 237.4
09/05 09:30 19.1 41 6.72 5.6 4 7 1022.7 0 15.4 22.0 30.8 80.4 70.2 240.3
09/05 09:20 18.5 42 6.64 5.3 4 4 1022.7 0 15.2 22.0 30.8 80.3 69.8 238.8
09/05 09:10 17.9 43 6.56 5.4 4 4 1022.7 0 15.1 22.0 30.7 80.1 69.4 237.3
09/05 09:00 17.5 46 6.86 5.8 6 9 1022.6 0 15.7 22.6 31.9 83.4 73.3 250.8
09/05 08:50 16.7 47 6.68 5.3 6 9 1022.7 0 15.4 22.5 31.6 82.5 71.9 245.8
09/05 08:40 16.1 49 6.72 5.4 11 13 1022.8 0 15.5 22.7 32.0 83.5 72.9 249.3
09/05 08:30 15.6 49 6.52 4.9 11 15 1022.7 0 15.1 22.5 31.4 82.0 71.0 242.4
09/05 08:20 15 52 6.67 5.2 9 13 1022.7 0 15.4 22.9 32.2 84.1 73.3 250.6
09/05 08:10 15.2 52 6.75 5.4 7 7 1022.5 0 15.6 23.0 32.4 84.7 74.1 253.3
09/05 08:00 15 55 7.05 6 7 11 1022.5 0 16.2 23.5 33.6 87.9 77.9 266.9
09/05 07:50 13.9 57 6.83 5.5 9 9 1022.1 0 15.8 23.4 33.2 86.8 76.3 260.9
09/05 07:40 13.3 61 7.05 5.9 4 4 1021.9 0 16.3 23.9 34.3 89.7 79.6 272.5
09/05 07:30 12.1 68 7.29 6.4 0 4 1021.9 0 16.9 24.6 35.8 93.6 83.9 287.4
09/05 07:20 11.2 77 7.81 7.3 0 0 1021.9 0 18.0 25.7 38.3 100.2 91.8 314.9
09/05 07:10 10.8 75 7.41 6.5 0 0 1021.7 0 17.2 25.1 36.8 96.4 86.9 297.7
09/05 07:00 10.5 74 7.18 6.1 4 6 1021.5 0 16.7 24.8 36.0 94.3 84.2 288.1
09/05 06:50 10.2 77 7.33 6.3 6 6 1021.8 0 17.0 25.2 36.8 96.3 86.5 296.3
09/05 06:40 9.8 74 6.87 5.4 7 7 1021.7 0 16.1 24.5 35.1 91.8 80.9 276.4
09/05 06:30 9.9 74 6.91 5.5 6 7 1021.5 0 16.1 24.6 35.2 92.1 81.3 277.8
09/05 06:20 9.9 73 6.82 5.3 7 7 1021.4 0 16.0 24.4 34.9 91.1 80.1 273.7
09/05 06:10 10.2 70 6.66 5.1 6 6 1021.1 0 15.6 24.1 34.1 89.1 77.7 265.3
09/05 05:50 9.4 80 7.24 6.1 7 7 1020.8 0 16.9 25.2 36.8 96.2 86.1 294.8
09/05 05:40 9.6 75 6.87 5.5 4 4 1020.6 0 16.1 24.6 35.2 91.9 81.0 276.8
09/05 05:30 9.4 78 7.06 5.8 4 6 1020.4 0 16.5 24.9 36.0 94.2 83.7 286.3
09/05 05:20 9.1 81 7.19 6 4 4 1020.3 0 16.8 25.2 36.7 95.9 85.8 293.5
09/05 05:10 8.8 80 6.97 5.5 6 6 1020.4 0 16.3 24.9 35.9 93.9 83.1 284.3

Last Refresh: 09-May-2026 21:31:59

Bureau of Meteorology